createdAt,value
2023-03-23T15:57:57.244Z,4.63
2023-03-23T16:00:27.764Z,4.90
2023-03-23T16:02:58.975Z,4.95
2023-03-23T16:05:25.726Z,4.35
2023-03-23T16:07:52.399Z,4.80
2023-03-23T16:10:22.077Z,4.65
2023-03-23T16:12:48.937Z,4.60
2023-03-23T16:15:16.346Z,4.75
2023-03-23T16:17:43.788Z,4.70
2023-03-23T16:20:20.283Z,4.60
2023-03-23T16:22:48.165Z,4.70
2023-03-23T16:25:15.037Z,4.85
2023-03-23T16:27:42.865Z,4.75
2023-03-23T16:30:23.287Z,4.57
2023-03-23T16:32:50.144Z,4.70
2023-03-23T16:35:18.838Z,4.60
2023-03-23T16:37:50.613Z,4.60
2023-03-23T16:40:19.297Z,4.55
2023-03-23T16:42:46.653Z,4.60
2023-03-23T16:45:14.732Z,4.47
2023-03-23T16:47:42.590Z,4.80
2023-03-23T16:50:12.080Z,4.78
2023-03-23T16:52:46.374Z,5.00
2023-03-23T16:55:15.173Z,4.50
2023-03-23T16:57:43.338Z,5.00
2023-03-23T17:00:15.287Z,5.07
2023-03-23T17:02:43.217Z,4.93
2023-03-23T17:05:11.304Z,4.63
2023-03-23T17:07:40.622Z,4.75
2023-03-23T17:10:09.159Z,4.65
2023-03-23T17:12:36.531Z,5.10
2023-03-23T17:15:03.865Z,4.97
2023-03-23T17:17:30.906Z,4.80
2023-03-23T17:19:57.884Z,4.82
2023-03-23T17:22:25.589Z,4.93
2023-03-23T17:24:52.637Z,4.60
2023-03-23T17:27:21.149Z,4.57
2023-03-23T17:29:47.899Z,4.75
2023-03-23T17:32:15.525Z,4.80
2023-03-23T17:34:42.274Z,4.93
2023-03-23T17:37:10.944Z,4.72
2023-03-23T17:39:42.853Z,5.10
2023-03-23T17:42:10.532Z,4.97
2023-03-23T17:44:37.229Z,5.40
2023-03-23T17:47:04.100Z,4.60
2023-03-23T17:49:31.182Z,4.40
2023-03-23T17:51:59.107Z,4.65
2023-03-23T17:54:27.185Z,4.85
2023-03-23T17:56:54.116Z,4.45
2023-03-23T17:59:21.759Z,5.38
2023-03-23T18:01:48.942Z,4.78
2023-03-23T18:04:15.994Z,4.63
2023-03-23T18:06:42.975Z,4.70
2023-03-23T18:09:10.210Z,4.78
2023-03-23T18:11:36.882Z,4.40
2023-03-23T18:14:04.069Z,4.63
2023-03-23T18:16:30.986Z,4.90
2023-03-23T18:18:57.712Z,5.10
2023-03-23T18:21:24.436Z,4.78
2023-03-23T18:23:58.785Z,5.05
2023-03-23T18:26:27.700Z,4.78
2023-03-23T18:28:54.728Z,4.35
2023-03-23T18:31:21.803Z,4.93
2023-03-23T18:33:50.264Z,4.75
2023-03-23T18:36:19.157Z,5.25
2023-03-23T18:38:46.656Z,4.65
2023-03-23T18:41:14.269Z,4.70
2023-03-23T18:43:40.999Z,4.90
2023-03-23T18:46:08.235Z,4.85
2023-03-23T18:48:36.080Z,5.00
2023-03-23T18:51:02.802Z,4.82
2023-03-23T18:53:29.704Z,4.65
2023-03-23T18:56:11.708Z,4.70
2023-03-23T18:58:38.426Z,5.10
2023-03-23T19:01:08.951Z,4.63
2023-03-23T19:03:36.895Z,5.30
2023-03-23T19:06:04.512Z,5.25
2023-03-23T19:08:31.836Z,5.80
2023-03-23T19:11:02.803Z,5.00
2023-03-23T19:13:31.229Z,4.82
2023-03-23T19:15:58.135Z,4.70
2023-03-23T19:18:24.896Z,4.60
2023-03-23T19:23:23.429Z,4.50
2023-03-23T19:25:52.271Z,4.40
2023-03-23T19:30:57.444Z,4.38
2023-03-23T19:33:25.564Z,4.60
2023-03-23T19:36:06.237Z,4.57
2023-03-23T19:38:36.564Z,4.60
2023-03-23T19:41:04.904Z,4.47
2023-03-23T19:43:32.533Z,4.50
2023-03-23T19:45:59.853Z,4.47
2023-03-23T19:48:26.756Z,4.70
2023-03-23T19:50:53.732Z,4.30
2023-03-23T19:53:20.531Z,4.50
2023-03-23T19:55:47.979Z,4.80
2023-03-23T19:58:15.740Z,4.80
2023-03-23T20:00:44.480Z,4.60
2023-03-23T20:03:11.604Z,5.03
2023-03-23T20:05:38.544Z,4.85
2023-03-23T20:08:05.477Z,5.05
2023-03-23T20:10:34.626Z,5.15
2023-03-23T20:13:07.170Z,5.20
2023-03-23T20:15:34.412Z,5.28
2023-03-23T20:18:01.251Z,5.30
2023-03-23T20:20:28.420Z,5.85
2023-03-23T20:22:57.879Z,5.38
2023-03-23T20:25:25.902Z,5.22
2023-03-23T20:27:52.736Z,5.75
2023-03-23T20:30:20.416Z,5.45
2023-03-23T20:32:47.263Z,5.22
2023-03-23T20:35:14.536Z,6.60
2023-03-23T20:37:41.272Z,5.90
2023-03-23T20:40:12.085Z,5.68
2023-03-23T20:42:43.584Z,5.93
2023-03-23T20:45:12.186Z,6.25
2023-03-23T20:47:39.377Z,6.07
2023-03-23T20:50:07.467Z,5.95
2023-03-23T20:52:35.052Z,6.45
2023-03-23T20:55:02.409Z,6.40
2023-03-23T20:57:29.047Z,6.00
2023-03-23T20:59:56.242Z,6.40
2023-03-23T21:02:25.866Z,6.88
2023-03-23T21:04:52.897Z,6.50
2023-03-23T21:07:23.043Z,6.07
2023-03-23T21:09:49.955Z,6.07
2023-03-23T21:12:16.856Z,8.45
2023-03-23T21:14:44.957Z,6.20
2023-03-23T21:17:11.976Z,6.80
2023-03-23T21:19:38.922Z,6.00
2023-03-23T21:22:05.608Z,6.25
2023-03-23T21:24:32.420Z,6.45
2023-03-23T21:27:02.978Z,6.93
2023-03-23T21:29:30.746Z,6.32
2023-03-23T21:34:27.421Z,6.78
2023-03-23T21:36:54.044Z,6.63
2023-03-23T21:39:21.221Z,6.20
2023-03-23T21:41:49.661Z,6.22
2023-03-23T21:44:18.055Z,6.20
2023-03-23T21:46:44.932Z,6.65
2023-03-23T21:49:14.220Z,6.70
2023-03-23T21:51:42.016Z,6.53
2023-03-23T21:54:10.329Z,7.50
2023-03-23T21:56:37.515Z,6.65
2023-03-23T21:59:07.256Z,6.75
2023-03-23T22:01:36.925Z,6.63
2023-03-23T22:04:05.666Z,6.72
2023-03-23T22:06:34.406Z,6.88
2023-03-23T22:09:02.449Z,6.72
2023-03-23T22:11:33.598Z,8.10
2023-03-23T22:14:01.302Z,6.72
2023-03-23T22:16:28.400Z,6.55
2023-03-23T22:18:56.976Z,7.63
2023-03-23T22:21:27.145Z,7.50
2023-03-23T22:23:57.336Z,8.30
2023-03-23T22:26:24.734Z,7.38
2023-03-23T22:28:51.977Z,6.85
2023-03-23T22:31:21.948Z,6.60
2023-03-23T22:33:50.398Z,6.53
2023-03-23T22:36:17.719Z,6.60
2023-03-23T22:38:46.998Z,6.95
2023-03-23T22:41:25.149Z,6.72
2023-03-23T22:43:52.181Z,7.00
2023-03-23T22:46:19.127Z,6.63
2023-03-23T22:48:46.212Z,7.55
2023-03-23T22:51:15.075Z,6.13
2023-03-23T22:53:41.849Z,6.60
2023-03-23T22:56:09.091Z,6.85
2023-03-23T22:58:36.119Z,6.75
2023-03-23T23:01:06.765Z,7.03
2023-03-23T23:03:34.388Z,6.43
2023-03-23T23:06:01.677Z,6.28
2023-03-23T23:08:29.954Z,6.72
2023-03-23T23:10:58.843Z,6.60
2023-03-23T23:13:26.615Z,6.20
2023-03-23T23:15:55.192Z,6.40
2023-03-23T23:18:22.957Z,6.15
2023-03-23T23:20:52.832Z,6.60
2023-03-23T23:23:19.629Z,6.45
2023-03-23T23:25:46.709Z,6.85
2023-03-23T23:28:13.759Z,6.97
2023-03-23T23:30:40.937Z,6.10
2023-03-23T23:33:07.804Z,6.50
2023-03-23T23:35:36.960Z,7.10
2023-03-23T23:38:05.138Z,6.50
2023-03-23T23:40:35.660Z,6.30
2023-03-23T23:43:03.563Z,6.10
2023-03-23T23:45:31.535Z,6.45
2023-03-23T23:47:58.456Z,6.70
2023-03-23T23:50:26.460Z,6.55
2023-03-23T23:52:53.233Z,6.80
2023-03-23T23:55:21.063Z,6.72
2023-03-23T23:57:48.746Z,6.13
